Tarawa, Kiribati
Current Conditions -  °F | °C
As of 5:00 PM on Saturday 25 Oct 2014 (Local Time) from NGTT Reporting Station
Broken Clouds Broken Clouds  
Wind Chill: 86°   Ceiling: 30000
Heat Index: 92°   Visibility: 6mi
Dew Point: 72°   Wind: 6mph
Humidity: 62%   Direction: 140°SE
Pressure: 29.77"   Gusts: NA
Location:  1.33°N, 172.98°E
Report Text: NGTT 250500Z 14005KT 9999 FEW018TCU BKN300 30/22 Q1008
Loading
Personal Weather Stations






























Interactive Weather Map
Tropical Storm Tracking
New forecast layout! Learn more

10-Day Weather Forecast

Advertisements
Track Severe Weather on mobile